Time;durP1;ratioP1;P1;durP2;ratioP2;P2;SDS_P1;SDS_P2;PMS_P1;PMS_P2;Temp;Humidity;BMP_temperature;BMP_pressure;BME280_temperature;BME280_humidity;BME280_pressure;Samples;Min_cycle;Max_cycle;Signal;HPM_P1;HPM_P2
2024/01/28 00:00:43;;;;;;;1.40;1.40;;;;;;;3.47;86.90;97130.09;4338107;32;20281;-65
2024/01/28 00:03:09;;;;;;;2.30;2.10;;;;;;;2.88;89.21;97136.13;4341508;32;20578;-65
2024/01/28 00:05:36;;;;;;;2.63;2.13;;;;;;;3.28;87.73;97133.53;4345116;32;20197;-65
2024/01/28 00:08:03;;;;;;;1.87;1.57;;;;;;;3.20;88.02;97137.16;4339758;32;20205;-65
2024/01/28 00:10:29;;;;;;;2.17;1.93;;;;;;;2.61;90.06;97140.50;4342652;32;20460;-65
2024/01/28 00:12:54;;;;;;;1.23;1.17;;;;;;;2.63;90.32;97143.72;4351247;32;20278;-66
2024/01/28 00:15:20;;;;;;;1.13;1.13;;;;;;;2.67;90.48;97139.72;4350760;32;20271;-65
2024/01/28 00:17:45;;;;;;;1.90;1.80;;;;;;;2.82;89.73;97130.88;4339051;32;20192;-66
2024/01/28 00:20:11;;;;;;;3.30;2.30;;;;;;;2.76;89.99;97130.66;4354044;32;20231;-65
2024/01/28 00:22:36;;;;;;;1.50;1.40;;;;;;;2.85;89.67;97120.78;4349900;32;20275;-65
2024/01/28 00:25:01;;;;;;;1.33;1.23;;;;;;;2.80;89.08;97114.53;4349885;32;20190;-65
2024/01/28 00:27:26;;;;;;;4.13;1.80;;;;;;;2.66;89.66;97117.12;4348492;32;20261;-65
2024/01/28 00:29:52;;;;;;;2.57;1.43;;;;;;;2.89;89.18;97113.34;4348368;32;20185;-65
2024/01/28 00:32:19;;;;;;;1.53;1.47;;;;;;;2.55;89.50;97122.13;4344971;32;20198;-65
2024/01/28 00:34:45;;;;;;;1.63;1.40;;;;;;;2.61;89.85;97110.88;4336375;32;20232;-66
2024/01/28 00:37:10;;;;;;;1.60;1.50;;;;;;;2.55;89.70;97115.09;4353902;32;20316;-66
2024/01/28 00:39:35;;;;;;;3.40;2.37;;;;;;;2.30;90.87;97109.56;4349372;32;20261;-67
2024/01/28 00:42:03;;;;;;;2.00;1.90;;;;;;;2.08;92.82;97114.13;4354192;32;20201;-65
2024/01/28 00:44:28;;;;;;;2.13;2.03;;;;;;;2.16;93.02;97114.97;4355842;32;20197;-65
2024/01/28 00:46:55;;;;;;;1.27;1.27;;;;;;;2.39;92.11;97110.22;4351268;32;20285;-65
2024/01/28 00:49:23;;;;;;;2.47;2.27;;;;;;;2.15;91.96;97102.88;4355707;32;20197;-65
2024/01/28 00:51:48;;;;;;;1.57;1.47;;;;;;;2.13;92.12;97099.66;4351407;32;20303;-65
2024/01/28 00:54:15;;;;;;;1.07;1.07;;;;;;;2.10;92.29;97095.59;4339887;32;20289;-65
2024/01/28 00:56:40;;;;;;;0.90;0.90;;;;;;;2.18;92.69;97090.22;4344001;32;20220;-65
2024/01/28 00:59:05;;;;;;;1.70;0.87;;;;;;;2.04;91.60;97086.75;4345310;32;20361;-65
2024/01/28 01:01:31;;;;;;;1.80;1.70;;;;;;;2.08;92.50;97094.22;4339316;32;20220;-66
2024/01/28 01:03:57;;;;;;;1.00;1.00;;;;;;;2.57;97.97;97086.88;4333481;32;20193;-66
2024/01/28 01:06:23;;;;;;;2.10;2.00;;;;;;;3.78;100.00;97072.47;4350125;32;20196;-65
2024/01/28 01:08:50;;;;;;;0.80;0.80;;;;;;;3.34;100.00;97077.62;4350084;32;20304;-67
2024/01/28 01:11:15;;;;;;;2.57;1.13;;;;;;;3.14;100.00;97080.25;4333332;32;20197;-67
2024/01/28 01:13:40;;;;;;;1.23;1.23;;;;;;;2.64;100.00;97072.00;4337272;32;20340;-67
2024/01/28 01:16:06;;;;;;;1.17;1.13;;;;;;;2.17;100.00;97077.31;4349825;32;20295;-67
2024/01/28 01:18:32;;;;;;;1.10;1.10;;;;;;;2.18;100.00;97077.13;4356421;32;20252;-67
2024/01/28 01:20:57;;;;;;;0.80;0.80;;;;;;;2.40;100.00;97070.75;4333035;32;20285;-67
2024/01/28 01:23:22;;;;;;;0.87;0.87;;;;;;;2.62;100.00;97076.63;4340676;32;20201;-67
2024/01/28 01:25:48;;;;;;;2.27;2.13;;;;;;;2.56;100.00;97079.22;4353416;32;20197;-67
2024/01/28 01:28:13;;;;;;;0.67;0.67;;;;;;;2.15;100.00;97072.28;4342753;32;20200;-68
2024/01/28 01:30:39;;;;;;;1.30;1.30;;;;;;;2.30;100.00;97069.50;4334186;32;20241;-67
2024/01/28 01:33:04;;;;;;;0.50;0.50;;;;;;;2.13;100.00;97070.84;4354340;32;20212;-67
2024/01/28 01:35:30;;;;;;;0.83;0.83;;;;;;;2.14;100.00;97073.28;4352142;32;20197;-67
2024/01/28 01:37:55;;;;;;;0.90;0.90;;;;;;;2.08;100.00;97070.66;4340664;32;20232;-67
2024/01/28 01:40:21;;;;;;;0.80;0.80;;;;;;;1.88;100.00;97065.31;4338472;32;20193;-67
2024/01/28 01:42:47;;;;;;;2.20;1.67;;;;;;;2.12;100.00;97061.38;4351887;32;20206;-66
2024/01/28 01:45:12;;;;;;;0.50;0.50;;;;;;;2.13;100.00;97058.56;4359613;32;20189;-68
2024/01/28 01:47:39;;;;;;;0.80;0.80;;;;;;;1.86;100.00;97051.66;4351462;32;20285;-67
2024/01/28 01:50:08;;;;;;;1.80;0.70;;;;;;;2.13;100.00;97052.53;4348043;32;20233;-67
2024/01/28 01:52:34;;;;;;;0.90;0.90;;;;;;;1.76;100.00;97056.44;4348718;32;20368;-65
2024/01/28 01:55:00;;;;;;;0.73;0.73;;;;;;;1.70;100.00;97058.00;4358540;32;20362;-65
2024/01/28 01:57:25;;;;;;;0.80;0.80;;;;;;;1.83;100.00;97052.84;4349122;32;20190;-65
2024/01/28 01:59:51;;;;;;;1.13;1.07;;;;;;;2.22;100.00;97046.13;4337394;32;20306;-65
2024/01/28 02:02:17;;;;;;;0.50;0.50;;;;;;;2.19;100.00;97041.28;4353733;32;20208;-64
2024/01/28 02:04:43;;;;;;;1.57;1.47;;;;;;;2.08;100.00;97050.50;4359705;32;20192;-66
2024/01/28 02:07:09;;;;;;;0.40;0.40;;;;;;;1.65;100.00;97037.69;4353256;32;20217;-66
2024/01/28 02:09:35;;;;;;;1.20;1.20;;;;;;;1.64;100.00;97043.09;4343077;32;20278;-65
2024/01/28 02:12:01;;;;;;;0.87;0.87;;;;;;;1.74;100.00;97040.94;4334783;32;20205;-65
2024/01/28 02:14:31;;;;;;;1.27;1.27;;;;;;;1.67;100.00;97040.88;4340265;32;20189;-66
2024/01/28 02:16:59;;;;;;;1.37;1.27;;;;;;;1.65;100.00;97039.50;4341406;32;20340;-65
2024/01/28 02:19:26;;;;;;;0.87;0.87;;;;;;;1.12;100.00;97035.75;4352744;32;20301;-65
2024/01/28 02:21:51;;;;;;;1.83;1.73;;;;;;;0.92;100.00;97038.22;4333170;32;20294;-64
2024/01/28 02:24:16;;;;;;;0.90;0.90;;;;;;;0.96;100.00;97039.47;4353865;32;20311;-64
2024/01/28 02:26:42;;;;;;;1.23;1.23;;;;;;;0.86;100.00;97047.62;4353203;32;20207;-65
2024/01/28 02:29:07;;;;;;;0.93;0.93;;;;;;;0.76;100.00;97041.94;4353179;32;20227;-65
2024/01/28 02:31:32;;;;;;;1.40;1.40;;;;;;;0.99;100.00;97034.69;4355476;32;20193;-66
2024/01/28 02:33:58;;;;;;;0.50;0.50;;;;;;;1.11;100.00;97031.53;4345176;32;20216;-65
2024/01/28 02:36:24;;;;;;;0.93;0.93;;;;;;;1.27;100.00;97024.19;4345271;32;20189;-65
2024/01/28 02:38:50;;;;;;;0.70;0.70;;;;;;;1.15;100.00;97023.13;4360704;32;20197;-65
2024/01/28 02:41:15;;;;;;;1.70;1.60;;;;;;;1.50;100.00;97021.28;4368986;32;20339;-66
2024/01/28 02:43:40;;;;;;;0.83;0.83;;;;;;;1.76;100.00;97019.81;4366860;32;20232;-65
2024/01/28 02:46:06;;;;;;;0.97;0.97;;;;;;;1.75;100.00;97011.16;4373745;32;20291;-65
2024/01/28 02:48:31;;;;;;;0.60;0.60;;;;;;;1.64;100.00;97017.75;4352431;32;20251;-65
2024/01/28 02:50:57;;;;;;;0.97;0.97;;;;;;;1.82;100.00;97016.41;4364192;32;20202;-65
2024/01/28 02:53:22;;;;;;;0.50;0.50;;;;;;;1.78;100.00;97018.63;4360392;32;20198;-65
2024/01/28 02:55:49;;;;;;;4.60;1.93;;;;;;;1.87;100.00;97011.41;4361082;32;20210;-65
2024/01/28 02:58:16;;;;;;;0.80;0.80;;;;;;;1.48;100.00;97012.03;4355174;32;20211;-65
2024/01/28 03:00:41;;;;;;;1.77;1.67;;;;;;;1.39;100.00;97019.25;4357889;32;20297;-67
2024/01/28 03:03:08;;;;;;;1.17;1.17;;;;;;;1.13;100.00;97014.66;4364251;32;20365;-67
2024/01/28 03:05:34;;;;;;;4.10;1.10;;;;;;;1.34;100.00;97011.97;4365535;32;20185;-67
2024/01/28 03:07:59;;;;;;;0.53;0.53;;;;;;;1.62;100.00;97013.72;4358574;32;20386;-67
2024/01/28 03:10:25;;;;;;;1.00;1.00;;;;;;;1.33;100.00;97009.56;4346350;32;20256;-67
2024/01/28 03:12:50;;;;;;;1.17;1.17;;;;;;;1.44;100.00;97008.22;4368255;32;20188;-67
2024/01/28 03:15:19;;;;;;;0.80;0.80;;;;;;;1.54;100.00;97006.03;4362814;32;20185;-67
2024/01/28 03:17:45;;;;;;;0.80;0.80;;;;;;;1.84;100.00;97015.22;4359837;32;20193;-67
2024/01/28 03:20:11;;;;;;;1.60;0.97;;;;;;;1.93;100.00;97006.19;4355973;32;20304;-67
2024/01/28 03:22:37;;;;;;;0.73;0.73;;;;;;;2.03;100.00;97004.00;4353205;32;20286;-67
2024/01/28 03:25:02;;;;;;;2.90;1.73;;;;;;;2.24;100.00;97002.25;4345600;32;20336;-67
2024/01/28 03:27:27;;;;;;;0.73;0.73;;;;;;;2.06;100.00;97006.22;4364630;32;20181;-66
2024/01/28 03:29:53;;;;;;;0.47;0.47;;;;;;;2.19;100.00;97002.03;4348902;32;20214;-64
2024/01/28 03:32:18;;;;;;;0.70;0.70;;;;;;;2.21;100.00;97003.44;4366081;32;20216;-65
2024/01/28 03:34:43;;;;;;;4.20;0.80;;;;;;;1.94;100.00;97005.19;4365841;32;20200;-65
2024/01/28 03:37:09;;;;;;;0.70;0.70;;;;;;;2.01;100.00;97011.25;4361883;32;20295;-65
2024/01/28 03:39:34;;;;;;;0.50;0.50;;;;;;;2.29;100.00;97003.22;4363393;32;20189;-65
2024/01/28 03:42:00;;;;;;;5.70;1.70;;;;;;;2.27;100.00;97001.84;4349928;32;20238;-65
2024/01/28 03:44:25;;;;;;;0.70;0.70;;;;;;;2.38;100.00;96998.63;4364595;32;20216;-65
2024/01/28 03:46:53;;;;;;;1.07;1.07;;;;;;;2.34;99.59;97013.13;4363816;32;20219;-65
2024/01/28 03:49:19;;;;;;;0.97;0.97;;;;;;;2.14;100.00;97017.50;4355659;32;20192;-65
2024/01/28 03:51:45;;;;;;;2.53;0.83;;;;;;;2.11;100.00;97004.81;4367123;32;20316;-65
2024/01/28 03:54:10;;;;;;;1.27;1.17;;;;;;;2.41;100.00;97013.94;4351985;32;20211;-65
2024/01/28 03:56:35;;;;;;;1.10;1.10;;;;;;;2.16;100.00;97012.87;4363843;32;22101;-65
2024/01/28 03:59:01;;;;;;;0.93;0.93;;;;;;;2.27;100.00;97001.84;4367685;32;20197;-65
2024/01/28 04:01:33;;;;;;;1.30;1.30;;;;;;;2.23;100.00;97000.63;4369228;32;20227;-65
2024/01/28 04:03:58;;;;;;;0.93;0.93;;;;;;;1.73;100.00;97007.91;4364216;32;20192;-65
2024/01/28 04:06:24;;;;;;;0.80;0.80;;;;;;;1.69;100.00;97009.31;4371729;32;20341;-65
2024/01/28 04:08:52;;;;;;;0.40;0.40;;;;;;;1.61;100.00;97012.91;4360388;32;20212;-64
2024/01/28 04:11:17;;;;;;;1.30;1.20;;;;;;;1.51;100.00;97016.88;4350718;32;20196;-64
2024/01/28 04:13:43;;;;;;;0.97;0.97;;;;;;;1.83;100.00;97010.19;4347811;32;20347;-65
2024/01/28 04:16:08;;;;;;;0.57;0.57;;;;;;;1.91;100.00;97005.56;4365935;32;20238;-65
2024/01/28 04:18:33;;;;;;;0.70;0.70;;;;;;;1.92;100.00;97009.78;4364901;32;20189;-65
2024/01/28 04:20:59;;;;;;;1.53;1.43;;;;;;;2.03;100.00;97006.63;4364644;32;20239;-65
2024/01/28 04:23:24;;;;;;;0.87;0.80;;;;;;;1.78;100.00;97013.37;4348227;32;20228;-65
2024/01/28 04:25:49;;;;;;;0.83;0.83;;;;;;;2.17;100.00;97011.88;4361914;32;20228;-64
2024/01/28 04:28:15;;;;;;;2.03;1.87;;;;;;;2.25;100.00;97009.09;4359496;32;20282;-65
2024/01/28 04:30:40;;;;;;;0.93;0.93;;;;;;;2.38;100.00;97011.72;4360182;32;20201;-65
2024/01/28 04:33:05;;;;;;;1.00;1.00;;;;;;;2.12;100.00;97016.91;4370616;32;20208;-65
2024/01/28 04:35:31;;;;;;;1.33;0.93;;;;;;;1.70;100.00;97010.91;4362188;32;20247;-65
2024/01/28 04:37:57;;;;;;;1.90;1.17;;;;;;;1.61;100.00;97007.69;4354413;32;20193;-65
2024/01/28 04:40:22;;;;;;;0.83;0.83;;;;;;;1.77;100.00;97013.56;4353553;32;20304;-65
2024/01/28 04:42:47;;;;;;;1.53;1.43;;;;;;;1.93;100.00;97000.94;4370415;32;20200;-64
2024/01/28 04:45:13;;;;;;;1.13;0.97;;;;;;;1.97;100.00;97004.78;4356205;32;20227;-66
2024/01/28 04:47:38;;;;;;;1.13;1.13;;;;;;;2.08;100.00;97004.19;4356159;32;20185;-65
2024/01/28 04:50:05;;;;;;;0.90;0.90;;;;;;;1.79;100.00;97001.91;4358716;32;20181;-65
2024/01/28 04:52:30;;;;;;;0.80;0.80;;;;;;;1.74;100.00;97004.31;4349631;32;20241;-65
2024/01/28 04:54:55;;;;;;;0.70;0.70;;;;;;;2.10;100.00;97003.19;4341759;32;20293;-65
2024/01/28 04:57:21;;;;;;;2.17;1.00;;;;;;;2.27;100.00;97009.69;4356653;32;20189;-65
2024/01/28 04:59:48;;;;;;;0.43;0.43;;;;;;;2.22;100.00;97005.06;4364507;32;20274;-63
2024/01/28 05:02:13;;;;;;;0.97;0.97;;;;;;;2.24;100.00;97010.09;4365517;32;20198;-66
2024/01/28 05:04:38;;;;;;;0.77;0.77;;;;;;;1.80;100.00;97006.16;4363585;32;20277;-65
2024/01/28 05:07:05;;;;;;;0.77;0.77;;;;;;;1.99;100.00;97005.41;4357949;32;20193;-66
2024/01/28 05:09:31;;;;;;;1.60;1.50;;;;;;;1.80;100.00;97014.00;4350008;32;20263;-65
2024/01/28 05:11:56;;;;;;;1.20;1.20;;;;;;;1.49;100.00;97011.03;4356055;32;20336;-64
2024/01/28 05:14:21;;;;;;;0.47;0.47;;;;;;;1.56;100.00;97009.25;4347787;32;20309;-65
2024/01/28 05:16:47;;;;;;;0.53;0.53;;;;;;;1.47;100.00;97005.19;4364672;32;20307;-64
2024/01/28 05:19:13;;;;;;;1.13;1.13;;;;;;;1.38;100.00;97013.22;4334463;32;20239;-66
2024/01/28 05:21:38;;;;;;;1.97;1.40;;;;;;;1.26;100.00;97019.97;4348901;32;20282;-66
2024/01/28 05:24:05;;;;;;;1.67;0.97;;;;;;;1.38;100.00;97022.84;4348739;32;20197;-65
2024/01/28 05:26:32;;;;;;;0.73;0.73;;;;;;;1.49;100.00;97018.88;4338477;32;20235;-65
2024/01/28 05:29:05;;;;;;;0.77;0.77;;;;;;;1.51;100.00;97016.88;4360058;32;20282;-65
2024/01/28 05:31:31;;;;;;;0.83;0.83;;;;;;;1.41;100.00;97011.22;4355399;32;20383;-64
2024/01/28 05:33:56;;;;;;;0.77;0.73;;;;;;;1.69;100.00;97012.72;4354696;32;20278;-64
2024/01/28 05:36:21;;;;;;;1.10;1.10;;;;;;;1.73;100.00;97011.34;4368048;32;20172;-64
2024/01/28 05:38:47;;;;;;;0.70;0.70;;;;;;;2.01;100.00;97008.63;4370605;32;20185;-63
2024/01/28 05:41:12;;;;;;;0.70;0.70;;;;;;;1.98;100.00;97008.22;4357598;32;20238;-66
2024/01/28 05:43:38;;;;;;;0.67;0.67;;;;;;;1.70;100.00;97019.56;4368475;32;20196;-65
2024/01/28 05:46:04;;;;;;;0.50;0.50;;;;;;;1.80;100.00;97016.59;4375288;32;20196;-66
2024/01/28 05:48:31;;;;;;;1.13;0.83;;;;;;;1.97;100.00;97012.63;4375303;32;20243;-64
2024/01/28 05:50:56;;;;;;;1.90;1.80;;;;;;;2.12;100.00;97011.66;4362155;32;20196;-64
2024/01/28 05:53:23;;;;;;;0.70;0.70;;;;;;;2.03;100.00;97013.66;4359636;32;20334;-65
2024/01/28 05:55:49;;;;;;;0.63;0.63;;;;;;;1.92;100.00;97020.25;4369213;32;20232;-65
2024/01/28 05:58:15;;;;;;;0.83;0.83;;;;;;;1.82;100.00;97014.59;4364726;32;20284;-65
2024/01/28 06:00:41;;;;;;;1.33;1.33;;;;;;;1.84;100.00;97023.06;4375517;32;20431;-66
2024/01/28 06:03:06;;;;;;;0.87;0.87;;;;;;;1.88;100.00;97021.66;4362945;32;20264;-65
2024/01/28 06:05:32;;;;;;;0.70;0.70;;;;;;;1.88;100.00;97019.03;4363667;32;20248;-65
2024/01/28 06:07:58;;;;;;;1.13;1.07;;;;;;;2.11;100.00;97018.69;4368797;32;20173;-66
2024/01/28 06:10:23;;;;;;;1.13;1.13;;;;;;;2.05;100.00;97017.69;4358766;32;20282;-67
2024/01/28 06:12:48;;;;;;;1.13;1.07;;;;;;;2.11;100.00;97033.59;4357717;32;20196;-67
2024/01/28 06:15:14;;;;;;;0.50;0.50;;;;;;;1.93;100.00;97032.34;4366162;32;20188;-67
2024/01/28 06:17:40;;;;;;;1.60;1.57;;;;;;;2.12;100.00;97024.75;4364414;32;20213;-67
2024/01/28 06:20:07;;;;;;;1.83;0.93;;;;;;;2.15;100.00;97034.81;4353424;32;20208;-67
2024/01/28 06:22:32;;;;;;;1.03;1.03;;;;;;;2.12;100.00;97029.97;4365641;32;20284;-67
2024/01/28 06:25:01;;;;;;;0.80;0.77;;;;;;;2.26;100.00;97023.78;4360461;32;20389;-67
2024/01/28 06:27:27;;;;;;;0.90;0.90;;;;;;;2.22;100.00;97026.00;4360266;32;20202;-67
2024/01/28 06:29:52;;;;;;;0.83;0.83;;;;;;;2.36;100.00;97029.44;4353571;32;20288;-66
2024/01/28 06:32:18;;;;;;;0.87;0.87;;;;;;;2.42;100.00;97031.25;4359908;32;20208;-66
2024/01/28 06:34:44;;;;;;;0.90;0.90;;;;;;;2.45;100.00;97040.53;4356462;32;20212;-65
2024/01/28 06:37:10;;;;;;;1.03;0.90;;;;;;;2.35;100.00;97038.28;4368207;32;20241;-64
2024/01/28 06:39:36;;;;;;;1.63;1.53;;;;;;;1.93;100.00;97040.19;4351506;32;20297;-65
2024/01/28 06:42:02;;;;;;;0.77;0.77;;;;;;;2.04;100.00;97046.69;4360619;32;20306;-64
2024/01/28 06:44:27;;;;;;;1.13;1.13;;;;;;;1.87;100.00;97042.81;4355102;32;20251;-65
2024/01/28 06:46:52;;;;;;;1.00;1.00;;;;;;;2.11;100.00;97037.03;4363301;32;20192;-64
2024/01/28 06:49:18;;;;;;;0.87;0.87;;;;;;;2.04;100.00;97044.88;4363605;32;20201;-64
2024/01/28 06:51:43;;;;;;;1.57;1.47;;;;;;;2.16;100.00;97036.44;4351642;32;20204;-64
2024/01/28 06:54:10;;;;;;;1.33;1.33;;;;;;;2.28;100.00;97035.69;4356853;32;20185;-65
2024/01/28 06:56:36;;;;;;;1.43;1.33;;;;;;;2.03;100.00;97043.25;4365444;32;20273;-64
2024/01/28 06:59:01;;;;;;;0.90;0.90;;;;;;;1.93;100.00;97032.34;4362963;32;20289;-65
2024/01/28 07:01:27;;;;;;;1.63;1.40;;;;;;;1.73;100.00;97037.50;4353723;32;20311;-64
2024/01/28 07:03:52;;;;;;;0.80;0.80;;;;;;;1.41;100.00;97045.19;4353542;32;20321;-64
2024/01/28 07:06:17;;;;;;;1.00;1.00;;;;;;;1.77;100.00;97037.13;4370275;32;20185;-64
2024/01/28 07:08:45;;;;;;;0.63;0.63;;;;;;;1.92;100.00;97038.56;4375208;32;20189;-64
2024/01/28 07:11:11;;;;;;;1.77;1.67;;;;;;;2.08;100.00;97040.03;4372101;32;20197;-64
2024/01/28 07:13:36;;;;;;;0.93;0.93;;;;;;;1.76;100.00;97044.16;4360515;32;20356;-64
2024/01/28 07:16:03;;;;;;;5.37;1.33;;;;;;;1.82;100.00;97045.19;4350813;32;20296;-64
2024/01/28 07:18:29;;;;;;;1.23;1.20;;;;;;;1.75;100.00;97039.94;4376693;32;20260;-64
2024/01/28 07:20:54;;;;;;;1.23;1.23;;;;;;;1.81;100.00;97036.53;4359344;32;20338;-64
2024/01/28 07:23:20;;;;;;;1.10;1.10;;;;;;;1.47;100.00;97047.03;4360013;32;20189;-64
2024/01/28 07:25:46;;;;;;;1.60;1.23;;;;;;;1.57;100.00;97042.25;4382733;32;20204;-64
2024/01/28 07:28:11;;;;;;;1.30;1.20;;;;;;;1.47;100.00;97039.19;4360969;32;20193;-64
2024/01/28 07:30:37;;;;;;;1.07;1.07;;;;;;;1.61;100.00;97043.50;4373899;32;20418;-64
2024/01/28 07:33:07;;;;;;;1.57;1.57;;;;;;;1.88;100.00;97034.72;4367275;32;20224;-64
2024/01/28 07:35:33;;;;;;;2.33;1.60;;;;;;;2.04;100.00;97039.66;4361934;32;20197;-64
2024/01/28 07:37:58;;;;;;;1.20;1.20;;;;;;;2.03;100.00;97043.25;4360251;32;20312;-64
2024/01/28 07:40:23;;;;;;;0.90;0.90;;;;;;;2.03;100.00;97039.84;4355611;32;20219;-64
2024/01/28 07:42:49;;;;;;;2.13;2.03;;;;;;;2.14;100.00;97035.81;4356343;32;20193;-64
2024/01/28 07:45:14;;;;;;;1.13;1.13;;;;;;;2.26;100.00;97036.87;4358992;32;20262;-64
2024/01/28 07:47:39;;;;;;;1.37;1.33;;;;;;;2.12;100.00;97038.63;4365499;32;20197;-64
2024/01/28 07:50:06;;;;;;;0.97;0.97;;;;;;;2.18;100.00;97030.00;4351603;32;20189;-64
2024/01/28 07:52:32;;;;;;;1.37;1.37;;;;;;;2.16;100.00;97039.06;4356845;32;20233;-64
2024/01/28 07:54:57;;;;;;;1.23;1.23;;;;;;;2.30;100.00;97038.06;4354959;32;20292;-65
2024/01/28 07:57:23;;;;;;;2.57;1.47;;;;;;;2.24;100.00;97031.84;4348484;32;20278;-64
2024/01/28 07:59:49;;;;;;;1.23;1.23;;;;;;;2.32;100.00;97030.84;4361158;32;20177;-63
2024/01/28 08:02:15;;;;;;;0.80;0.80;;;;;;;2.41;100.00;97037.50;4372516;32;20198;-64
2024/01/28 08:04:43;;;;;;;1.63;1.53;;;;;;;2.57;99.25;97034.50;4347018;32;20343;-64
2024/01/28 08:07:09;;;;;;;1.60;1.50;;;;;;;2.54;98.92;97029.66;4349469;32;20339;-67
2024/01/28 08:09:36;;;;;;;1.17;1.13;;;;;;;2.45;99.32;97041.34;4340946;32;20377;-67
2024/01/28 08:12:03;;;;;;;1.57;1.47;;;;;;;2.51;99.05;97039.72;4361800;32;20193;-67
2024/01/28 08:14:28;;;;;;;1.93;1.20;;;;;;;2.51;99.29;97040.53;4346430;32;20286;-67
2024/01/28 08:16:55;;;;;;;1.20;1.20;;;;;;;2.41;99.58;97038.31;4356513;32;20323;-66
2024/01/28 08:19:20;;;;;;;1.50;1.40;;;;;;;2.56;99.79;97037.31;4359099;32;20202;-66
2024/01/28 08:21:47;;;;;;;1.17;1.17;;;;;;;2.67;99.39;97040.16;4350250;32;20308;-67
2024/01/28 08:24:12;;;;;;;2.30;0.57;;;;;;;2.70;98.71;97031.09;4348802;32;20238;-67
2024/01/28 08:26:38;;;;;;;0.80;0.80;;;;;;;2.90;97.62;97034.53;4348814;32;20285;-67
2024/01/28 08:29:03;;;;;;;0.50;0.50;;;;;;;2.94;97.80;97035.72;4356985;32;20269;-67
2024/01/28 08:31:29;;;;;;;1.40;1.30;;;;;;;2.79;97.67;97029.06;4348554;32;20188;-67
2024/01/28 08:33:54;;;;;;;2.97;1.30;;;;;;;2.80;98.35;97033.31;4358405;32;20212;-67
2024/01/28 08:36:20;;;;;;;0.70;0.70;;;;;;;2.87;99.02;97031.50;4354517;32;20227;-66
2024/01/28 08:38:45;;;;;;;2.00;1.77;;;;;;;2.82;98.54;97026.06;4354040;32;20204;-67
2024/01/28 08:41:11;;;;;;;0.93;0.93;;;;;;;3.03;98.64;97028.47;4356767;32;20300;-67
2024/01/28 08:43:37;;;;;;;1.00;1.00;;;;;;;3.25;97.35;97021.97;4360197;32;20215;-67
2024/01/28 08:46:03;;;;;;;1.10;1.10;;;;;;;3.30;96.12;97029.25;4347068;32;20212;-67
2024/01/28 08:48:29;;;;;;;0.73;0.73;;;;;;;3.44;95.24;97022.94;4359228;32;20197;-67
2024/01/28 08:50:54;;;;;;;0.90;0.90;;;;;;;3.47;94.38;97024.34;4368515;32;20248;-67
2024/01/28 08:53:19;;;;;;;1.23;1.00;;;;;;;3.44;94.17;97015.06;4347831;32;20209;-67
2024/01/28 08:55:44;;;;;;;6.13;0.97;;;;;;;3.62;93.69;97017.03;4351284;32;20268;-67
2024/01/28 08:58:10;;;;;;;0.37;0.37;;;;;;;3.68;93.01;97021.47;4348283;32;20197;-65
2024/01/28 09:00:35;;;;;;;1.10;1.00;;;;;;;3.70;93.29;97022.06;4348256;32;20192;-65
2024/01/28 09:03:01;;;;;;;1.00;1.00;;;;;;;3.71;93.13;97021.06;4357501;32;20220;-65
2024/01/28 09:05:26;;;;;;;1.53;1.43;;;;;;;3.91;92.51;97019.16;4362767;32;20177;-67
2024/01/28 09:07:52;;;;;;;0.93;0.93;;;;;;;4.03;91.81;97024.53;4354449;32;20248;-65
2024/01/28 09:10:19;;;;;;;0.70;0.70;;;;;;;4.07;91.27;97010.78;4356283;32;20185;-64
2024/01/28 09:12:44;;;;;;;1.43;0.90;;;;;;;4.11;91.05;97011.19;4348779;32;20291;-65
2024/01/28 09:15:10;;;;;;;0.67;0.67;;;;;;;4.16;90.21;97013.19;4346970;32;20289;-65
2024/01/28 09:17:35;;;;;;;0.93;0.83;;;;;;;4.23;89.13;97013.94;4344717;32;20236;-65
2024/01/28 09:20:00;;;;;;;0.83;0.83;;;;;;;4.18;89.08;97019.00;4347243;32;20202;-65
2024/01/28 09:22:26;;;;;;;0.83;0.83;;;;;;;4.30;88.59;97014.69;4352429;32;20227;-65
2024/01/28 09:24:51;;;;;;;0.70;0.63;;;;;;;4.26;90.07;97013.50;4350760;32;20240;-65
2024/01/28 09:27:17;;;;;;;0.80;0.80;;;;;;;4.39;89.47;97016.03;4351217;32;20216;-61
2024/01/28 09:29:43;;;;;;;1.03;0.83;;;;;;;4.48;88.81;97007.72;4349124;32;20197;-61
2024/01/28 09:32:09;;;;;;;0.63;0.63;;;;;;;4.62;88.32;97010.22;4354603;32;20303;-61
2024/01/28 09:34:34;;;;;;;0.60;0.60;;;;;;;4.77;88.61;97008.91;4362049;32;22125;-61
2024/01/28 09:36:59;;;;;;;0.70;0.70;;;;;;;4.83;87.83;97008.03;4361530;32;20236;-61
2024/01/28 09:39:25;;;;;;;0.60;0.60;;;;;;;4.87;87.20;97013.69;4362367;32;20212;-61
2024/01/28 09:42:11;;;;;;;0.60;0.60;;;;;;;4.88;87.01;97009.22;4369447;32;20268;-61
2024/01/28 09:44:37;;;;;;;0.87;0.87;;;;;;;4.92;87.41;97007.78;4362733;32;20222;-62
2024/01/28 09:47:04;;;;;;;0.63;0.50;;;;;;;4.92;87.02;97011.22;4351341;32;20290;-62
2024/01/28 09:49:31;;;;;;;1.30;0.93;;;;;;;4.96;86.89;97009.78;4358336;32;20289;-62
2024/01/28 09:51:57;;;;;;;0.50;0.50;;;;;;;4.99;86.55;97004.06;4352990;32;20402;-62
2024/01/28 09:54:22;;;;;;;0.93;0.93;;;;;;;5.19;85.81;97009.16;4352031;32;20393;-61
2024/01/28 09:56:49;;;;;;;0.80;0.77;;;;;;;5.79;97.36;97004.06;4349299;32;20289;-62
2024/01/28 09:59:15;;;;;;;1.37;1.37;;;;;;;6.47;100.00;96996.66;4355985;32;20256;-61
2024/01/28 10:01:42;;;;;;;1.60;0.80;;;;;;;6.83;98.42;97001.00;4358758;32;20342;-61
2024/01/28 10:04:10;;;;;;;0.43;0.43;;;;;;;7.02;91.81;97003.53;4354650;32;20403;-61
2024/01/28 10:06:36;;;;;;;1.43;0.77;;;;;;;7.23;89.21;96995.06;4356152;32;20289;-62
2024/01/28 10:09:01;;;;;;;2.00;0.87;;;;;;;7.53;91.63;96995.69;4347125;32;20312;-61
2024/01/28 10:11:26;;;;;;;0.50;0.50;;;;;;;7.81;89.28;96987.03;4357940;32;20189;-62
2024/01/28 10:13:53;;;;;;;1.63;0.70;;;;;;;7.85;83.85;96996.09;4362496;32;20261;-61
2024/01/28 10:16:23;;;;;;;0.10;0.10;;;;;;;7.77;80.09;96990.37;4364672;32;20197;-61
2024/01/28 10:18:48;;;;;;;2.00;0.70;;;;;;;8.09;83.46;96991.53;4350155;32;20281;-61
2024/01/28 10:21:14;;;;;;;0.53;0.53;;;;;;;8.08;79.95;96986.50;4362490;32;20303;-61
2024/01/28 10:23:39;;;;;;;0.40;0.40;;;;;;;8.20;78.16;96989.87;4351104;32;20223;-61
2024/01/28 10:26:06;;;;;;;0.70;0.70;;;;;;;8.16;77.98;96992.19;4358769;32;20193;-61
2024/01/28 10:28:31;;;;;;;0.80;0.80;;;;;;;8.43;77.39;96989.81;4346931;32;20318;-61
2024/01/28 10:30:57;;;;;;;0.53;0.53;;;;;;;8.29;75.63;96993.75;4356050;32;20288;-61
2024/01/28 10:33:22;;;;;;;0.50;0.50;;;;;;;8.18;73.52;96987.47;4352933;32;20254;-64
2024/01/28 10:35:47;;;;;;;0.60;0.60;;;;;;;8.36;75.78;96985.69;4348905;32;20307;-63
2024/01/28 10:38:18;;;;;;;0.50;0.50;;;;;;;8.31;74.83;96982.94;4362073;32;20226;-65
2024/01/28 10:40:45;;;;;;;0.37;0.37;;;;;;;8.13;70.17;96990.00;4364554;32;20207;-65
2024/01/28 10:43:15;;;;;;;0.23;0.23;;;;;;;8.24;61.31;96986.53;4362403;32;20285;-65
2024/01/28 10:45:42;;;;;;;0.33;0.33;;;;;;;8.49;60.33;96982.75;4366408;32;20295;-65
2024/01/28 10:48:16;;;;;;;0.10;0.10;;;;;;;8.35;54.91;96976.16;4343555;32;20349;-65
2024/01/28 10:50:43;;;;;;;0.40;0.40;;;;;;;8.17;54.59;96967.34;4352929;32;20185;-65
2024/01/28 10:53:09;;;;;;;1.80;0.30;;;;;;;8.21;57.04;96972.97;4350424;32;20275;-65
2024/01/28 10:55:35;;;;;;;0.20;0.20;;;;;;;8.12;54.69;96967.25;4348096;32;20196;-65
2024/01/28 10:58:04;;;;;;;1.60;0.57;;;;;;;8.16;56.62;96963.09;4349739;32;20337;-65
2024/01/28 11:00:30;;;;;;;0.20;0.20;;;;;;;8.33;54.86;96957.88;4342699;32;20185;-65
2024/01/28 11:02:58;;;;;;;1.33;0.73;;;;;;;8.33;54.77;96962.38;4353295;32;20256;-65
2024/01/28 11:05:26;;;;;;;1.33;0.57;;;;;;;8.49;55.65;96949.19;4345637;32;20265;-65
2024/01/28 11:07:53;;;;;;;0.37;0.37;;;;;;;8.56;55.75;96956.94;4357746;32;20212;-66
2024/01/28 11:10:20;;;;;;;0.50;0.50;;;;;;;8.58;54.70;96949.56;4362097;32;20196;-65
2024/01/28 11:12:45;;;;;;;0.60;0.60;;;;;;;8.70;54.10;96942.38;4360318;32;20192;-66
2024/01/28 11:15:13;;;;;;;0.63;0.63;;;;;;;8.65;53.92;96946.78;4356336;32;20264;-65
2024/01/28 11:17:39;;;;;;;0.20;0.20;;;;;;;8.53;54.15;96938.91;4358036;32;20189;-65
2024/01/28 11:20:10;;;;;;;0.97;0.37;;;;;;;8.55;53.56;96937.63;4357727;32;20211;-68
2024/01/28 11:23:13;;;;;;;0.83;0.83;;;;;;;8.38;53.93;96936.81;4356362;32;20260;-65
2024/01/28 11:25:39;;;;;;;0.60;0.53;;;;;;;8.50;52.93;96931.47;4351678;32;20286;-66
2024/01/28 11:28:05;;;;;;;0.27;0.27;;;;;;;8.39;53.21;96933.12;4347315;32;20244;-65
2024/01/28 11:30:31;;;;;;;0.40;0.40;;;;;;;8.51;52.33;96935.72;4359848;32;20344;-66